sensor_id;sensor_type;location;lat;lon;timestamp;temperature;humidity
11423;DHT22;5768;51.476;7.210;2023-11-22T00:02:17;7.80;89.00
11423;DHT22;5768;51.476;7.210;2023-11-22T00:07:21;8.00;89.50
11423;DHT22;5768;51.476;7.210;2023-11-22T00:12:23;8.00;87.60
11423;DHT22;5768;51.476;7.210;2023-11-22T00:17:27;8.20;86.70
11423;DHT22;5768;51.476;7.210;2023-11-22T00:22:29;8.20;84.20
11423;DHT22;5768;51.476;7.210;2023-11-22T00:27:32;8.10;85.20
11423;DHT22;5768;51.476;7.210;2023-11-22T00:32:36;8.00;85.00
11423;DHT22;5768;51.476;7.210;2023-11-22T00:37:38;8.10;86.00
11423;DHT22;5768;51.476;7.210;2023-11-22T00:42:41;8.10;85.20
11423;DHT22;5768;51.476;7.210;2023-11-22T00:47:45;8.10;84.10
11423;DHT22;5768;51.476;7.210;2023-11-22T00:52:47;8.00;83.70
11423;DHT22;5768;51.476;7.210;2023-11-22T00:57:50;8.00;82.00
11423;DHT22;5768;51.476;7.210;2023-11-22T01:02:53;7.90;84.50
11423;DHT22;5768;51.476;7.210;2023-11-22T01:07:56;7.80;85.50
11423;DHT22;5768;51.476;7.210;2023-11-22T01:12:58;7.70;89.00
11423;DHT22;5768;51.476;7.210;2023-11-22T01:18:02;7.60;88.90
11423;DHT22;5768;51.476;7.210;2023-11-22T01:23:04;7.50;89.50
11423;DHT22;5768;51.476;7.210;2023-11-22T01:28:07;7.50;90.70
11423;DHT22;5768;51.476;7.210;2023-11-22T01:33:13;7.60;90.80
11423;DHT22;5768;51.476;7.210;2023-11-22T01:38:15;7.80;90.00
11423;DHT22;5768;51.476;7.210;2023-11-22T01:43:19;7.80;87.30
11423;DHT22;5768;51.476;7.210;2023-11-22T01:48:26;7.50;89.00
11423;DHT22;5768;51.476;7.210;2023-11-22T01:53:29;7.30;92.00
11423;DHT22;5768;51.476;7.210;2023-11-22T01:58:32;7.10;96.20
11423;DHT22;5768;51.476;7.210;2023-11-22T02:03:36;7.10;95.10
11423;DHT22;5768;51.476;7.210;2023-11-22T02:08:39;7.10;94.60
11423;DHT22;5768;51.476;7.210;2023-11-22T02:13:41;7.10;97.60
11423;DHT22;5768;51.476;7.210;2023-11-22T02:18:45;7.10;97.10
11423;DHT22;5768;51.476;7.210;2023-11-22T02:23:50;7.10;95.30
11423;DHT22;5768;51.476;7.210;2023-11-22T02:28:52;7.00;93.70
11423;DHT22;5768;51.476;7.210;2023-11-22T02:33:54;7.10;92.40
11423;DHT22;5768;51.476;7.210;2023-11-22T02:38:58;7.10;90.90
11423;DHT22;5768;51.476;7.210;2023-11-22T02:44:01;6.90;93.00
11423;DHT22;5768;51.476;7.210;2023-11-22T02:49:07;6.80;96.40
11423;DHT22;5768;51.476;7.210;2023-11-22T02:54:12;6.70;96.00
11423;DHT22;5768;51.476;7.210;2023-11-22T02:59:14;6.70;94.20
11423;DHT22;5768;51.476;7.210;2023-11-22T03:04:17;6.80;91.80
11423;DHT22;5768;51.476;7.210;2023-11-22T03:09:20;6.80;90.40
11423;DHT22;5768;51.476;7.210;2023-11-22T03:14:23;6.60;90.20
11423;DHT22;5768;51.476;7.210;2023-11-22T03:19:26;6.50;90.50
11423;DHT22;5768;51.476;7.210;2023-11-22T03:24:30;6.20;92.00
11423;DHT22;5768;51.476;7.210;2023-11-22T03:29:34;6.20;91.00
11423;DHT22;5768;51.476;7.210;2023-11-22T03:34:36;6.10;92.90
11423;DHT22;5768;51.476;7.210;2023-11-22T03:39:40;5.90;93.30
11423;DHT22;5768;51.476;7.210;2023-11-22T03:44:48;5.90;91.10
11423;DHT22;5768;51.476;7.210;2023-11-22T03:49:51;5.80;89.60
11423;DHT22;5768;51.476;7.210;2023-11-22T03:54:57;5.80;90.80
11423;DHT22;5768;51.476;7.210;2023-11-22T03:59:59;5.60;90.00
11423;DHT22;5768;51.476;7.210;2023-11-22T04:05:01;5.60;89.60
11423;DHT22;5768;51.476;7.210;2023-11-22T04:10:05;5.60;89.20
11423;DHT22;5768;51.476;7.210;2023-11-22T04:15:08;5.50;87.30
11423;DHT22;5768;51.476;7.210;2023-11-22T04:20:11;5.50;86.40
11423;DHT22;5768;51.476;7.210;2023-11-22T04:25:16;5.50;86.20
11423;DHT22;5768;51.476;7.210;2023-11-22T04:30:19;5.50;82.70
11423;DHT22;5768;51.476;7.210;2023-11-22T04:35:21;5.50;35.60
11423;DHT22;5768;51.476;7.210;2023-11-22T04:40:24;5.40;34.50
11423;DHT22;5768;51.476;7.210;2023-11-22T04:45:27;5.40;82.00
11423;DHT22;5768;51.476;7.210;2023-11-22T04:50:29;5.40;38.30
11423;DHT22;5768;51.476;7.210;2023-11-22T04:55:32;5.40;35.60
11423;DHT22;5768;51.476;7.210;2023-11-22T05:00:35;5.40;36.80
11423;DHT22;5768;51.476;7.210;2023-11-22T05:05:37;5.40;33.20
11423;DHT22;5768;51.476;7.210;2023-11-22T05:10:40;5.30;35.70
11423;DHT22;5768;51.476;7.210;2023-11-22T05:15:43;5.30;37.60
11423;DHT22;5768;51.476;7.210;2023-11-22T05:20:45;5.40;37.70
11423;DHT22;5768;51.476;7.210;2023-11-22T05:25:50;5.30;29.70
11423;DHT22;5768;51.476;7.210;2023-11-22T05:30:55;5.40;32.20
11423;DHT22;5768;51.476;7.210;2023-11-22T05:35:57;5.30;29.50
11423;DHT22;5768;51.476;7.210;2023-11-22T05:41:01;5.20;30.50
11423;DHT22;5768;51.476;7.210;2023-11-22T05:46:03;5.20;36.60
11423;DHT22;5768;51.476;7.210;2023-11-22T05:51:06;5.20;82.80
11423;DHT22;5768;51.476;7.210;2023-11-22T05:56:10;5.20;32.40
11423;DHT22;5768;51.476;7.210;2023-11-22T06:01:15;5.10;29.90
11423;DHT22;5768;51.476;7.210;2023-11-22T06:06:17;5.00;32.40
11423;DHT22;5768;51.476;7.210;2023-11-22T06:11:23;4.80;35.20
11423;DHT22;5768;51.476;7.210;2023-11-22T06:16:27;4.80;83.10
11423;DHT22;5768;51.476;7.210;2023-11-22T06:21:29;4.70;82.00
11423;DHT22;5768;51.476;7.210;2023-11-22T06:26:32;4.70;81.70
11423;DHT22;5768;51.476;7.210;2023-11-22T06:31:35;4.60;82.00
11423;DHT22;5768;51.476;7.210;2023-11-22T06:36:37;4.50;83.20
11423;DHT22;5768;51.476;7.210;2023-11-22T06:41:42;4.50;83.40
11423;DHT22;5768;51.476;7.210;2023-11-22T06:46:44;4.40;83.80
11423;DHT22;5768;51.476;7.210;2023-11-22T06:51:46;4.40;82.50
11423;DHT22;5768;51.476;7.210;2023-11-22T06:56:50;4.40;81.70
11423;DHT22;5768;51.476;7.210;2023-11-22T07:01:52;4.40;35.30
11423;DHT22;5768;51.476;7.210;2023-11-22T07:06:56;4.30;34.60
11423;DHT22;5768;51.476;7.210;2023-11-22T07:12:00;4.40;81.90
11423;DHT22;5768;51.476;7.210;2023-11-22T07:17:03;4.40;82.20
11423;DHT22;5768;51.476;7.210;2023-11-22T07:22:07;4.40;34.40
11423;DHT22;5768;51.476;7.210;2023-11-22T07:27:18;4.40;29.40
11423;DHT22;5768;51.476;7.210;2023-11-22T07:32:28;4.40;38.70
11423;DHT22;5768;51.476;7.210;2023-11-22T07:37:30;4.60;83.70
11423;DHT22;5768;51.476;7.210;2023-11-22T07:42:34;4.70;28.40
11423;DHT22;5768;51.476;7.210;2023-11-22T07:47:37;4.70;29.10
11423;DHT22;5768;51.476;7.210;2023-11-22T07:52:41;4.80;28.90
11423;DHT22;5768;51.476;7.210;2023-11-22T07:57:49;4.90;29.40
11423;DHT22;5768;51.476;7.210;2023-11-22T08:02:52;5.00;28.50
11423;DHT22;5768;51.476;7.210;2023-11-22T08:07:54;5.10;28.00
11423;DHT22;5768;51.476;7.210;2023-11-22T08:13:00;5.20;27.20
11423;DHT22;5768;51.476;7.210;2023-11-22T08:18:03;5.30;26.90
11423;DHT22;5768;51.476;7.210;2023-11-22T08:23:06;5.50;25.90
11423;DHT22;5768;51.476;7.210;2023-11-22T08:28:10;5.50;25.00
11423;DHT22;5768;51.476;7.210;2023-11-22T08:33:13;5.70;24.20
11423;DHT22;5768;51.476;7.210;2023-11-22T08:38:16;5.60;23.50
11423;DHT22;5768;51.476;7.210;2023-11-22T08:43:21;5.90;22.50
11423;DHT22;5768;51.476;7.210;2023-11-22T08:48:25;6.00;21.40
11423;DHT22;5768;51.476;7.210;2023-11-22T08:53:28;6.20;20.60
11423;DHT22;5768;51.476;7.210;2023-11-22T08:58:32;6.30;19.80
11423;DHT22;5768;51.476;7.210;2023-11-22T09:03:38;6.50;19.70
11423;DHT22;5768;51.476;7.210;2023-11-22T09:08:41;6.70;17.30
11423;DHT22;5768;51.476;7.210;2023-11-22T09:13:45;7.10;17.10
11423;DHT22;5768;51.476;7.210;2023-11-22T09:18:47;7.30;16.70
11423;DHT22;5768;51.476;7.210;2023-11-22T09:23:49;7.50;21.90
11423;DHT22;5768;51.476;7.210;2023-11-22T09:28:55;7.60;99.90
11423;DHT22;5768;51.476;7.210;2023-11-22T09:33:58;7.60;99.90
11423;DHT22;5768;51.476;7.210;2023-11-22T09:39:03;7.80;1.40
11423;DHT22;5768;51.476;7.210;2023-11-22T09:44:10;7.80;1.40
11423;DHT22;5768;51.476;7.210;2023-11-22T09:49:16;7.90;1.40
11423;DHT22;5768;51.476;7.210;2023-11-22T09:54:24;8.10;1.40
11423;DHT22;5768;51.476;7.210;2023-11-22T09:59:31;8.20;1.40
11423;DHT22;5768;51.476;7.210;2023-11-22T10:04:34;8.30;1.40
11423;DHT22;5768;51.476;7.210;2023-11-22T10:09:36;8.40;1.40
11423;DHT22;5768;51.476;7.210;2023-11-22T10:14:40;8.60;1.40
11423;DHT22;5768;51.476;7.210;2023-11-22T10:19:45;8.60;1.40
11423;DHT22;5768;51.476;7.210;2023-11-22T10:24:47;8.70;1.40
11423;DHT22;5768;51.476;7.210;2023-11-22T10:29:50;8.80;1.40
11423;DHT22;5768;51.476;7.210;2023-11-22T10:34:53;9.00;1.40
11423;DHT22;5768;51.476;7.210;2023-11-22T10:39:56;9.20;1.40
11423;DHT22;5768;51.476;7.210;2023-11-22T10:45:01;9.20;1.40
11423;DHT22;5768;51.476;7.210;2023-11-22T10:50:09;9.30;1.40
11423;DHT22;5768;51.476;7.210;2023-11-22T10:55:15;9.60;1.40
11423;DHT22;5768;51.476;7.210;2023-11-22T11:00:21;9.70;1.40
11423;DHT22;5768;51.476;7.210;2023-11-22T11:05:31;9.90;1.40
11423;DHT22;5768;51.476;7.210;2023-11-22T11:10:37;10.00;99.90
11423;DHT22;5768;51.476;7.210;2023-11-22T11:15:43;10.20;99.90
11423;DHT22;5768;51.476;7.210;2023-11-22T11:20:50;10.20;99.90
11423;DHT22;5768;51.476;7.210;2023-11-22T11:25:54;10.30;99.90
11423;DHT22;5768;51.476;7.210;2023-11-22T11:30:59;10.20;99.90
11423;DHT22;5768;51.476;7.210;2023-11-22T11:36:02;10.60;20.00
11423;DHT22;5768;51.476;7.210;2023-11-22T11:41:09;10.50;17.30
11423;DHT22;5768;51.476;7.210;2023-11-22T11:46:14;10.70;15.30
11423;DHT22;5768;51.476;7.210;2023-11-22T11:51:19;10.60;14.90
11423;DHT22;5768;51.476;7.210;2023-11-22T11:56:24;10.70;14.20
11423;DHT22;5768;51.476;7.210;2023-11-22T12:01:29;10.90;13.80
11423;DHT22;5768;51.476;7.210;2023-11-22T12:06:33;10.90;13.60
11423;DHT22;5768;51.476;7.210;2023-11-22T12:11:37;10.40;12.20
11423;DHT22;5768;51.476;7.210;2023-11-22T12:16:41;10.30;12.20
11423;DHT22;5768;51.476;7.210;2023-11-22T12:21:49;10.30;11.60
11423;DHT22;5768;51.476;7.210;2023-11-22T12:26:56;10.60;11.30
11423;DHT22;5768;51.476;7.210;2023-11-22T12:32:00;10.90;11.70
11423;DHT22;5768;51.476;7.210;2023-11-22T12:37:03;11.40;11.40
11423;DHT22;5768;51.476;7.210;2023-11-22T12:42:05;11.30;11.50
11423;DHT22;5768;51.476;7.210;2023-11-22T12:47:09;11.70;11.30
11423;DHT22;5768;51.476;7.210;2023-11-22T12:52:11;11.10;11.10
11423;DHT22;5768;51.476;7.210;2023-11-22T12:57:14;11.40;11.00
11423;DHT22;5768;51.476;7.210;2023-11-22T13:02:18;11.20;11.00
11423;DHT22;5768;51.476;7.210;2023-11-22T13:07:20;11.80;11.10
11423;DHT22;5768;51.476;7.210;2023-11-22T13:12:23;12.50;11.00
11423;DHT22;5768;51.476;7.210;2023-11-22T13:17:26;12.90;11.00
11423;DHT22;5768;51.476;7.210;2023-11-22T13:22:29;12.70;10.80
11423;DHT22;5768;51.476;7.210;2023-11-22T13:27:32;13.10;11.00
11423;DHT22;5768;51.476;7.210;2023-11-22T13:32:39;12.70;10.80
11423;DHT22;5768;51.476;7.210;2023-11-22T13:37:44;12.20;10.60
11423;DHT22;5768;51.476;7.210;2023-11-22T13:42:49;12.20;10.70
11423;DHT22;5768;51.476;7.210;2023-11-22T13:47:55;11.60;10.50
11423;DHT22;5768;51.476;7.210;2023-11-22T13:53:04;11.70;10.60
11423;DHT22;5768;51.476;7.210;2023-11-22T13:58:06;11.10;10.60
11423;DHT22;5768;51.476;7.210;2023-11-22T14:03:11;11.40;10.40
11423;DHT22;5768;51.476;7.210;2023-11-22T14:08:13;11.20;10.10
11423;DHT22;5768;51.476;7.210;2023-11-22T14:13:15;10.70;10.40
11423;DHT22;5768;51.476;7.210;2023-11-22T14:18:19;10.80;10.50
11423;DHT22;5768;51.476;7.210;2023-11-22T14:23:22;10.20;10.70
11423;DHT22;5768;51.476;7.210;2023-11-22T14:28:24;10.40;10.90
11423;DHT22;5768;51.476;7.210;2023-11-22T14:33:31;9.90;11.00
11423;DHT22;5768;51.476;7.210;2023-11-22T14:38:37;10.00;10.90
11423;DHT22;5768;51.476;7.210;2023-11-22T14:43:43;9.90;10.70
11423;DHT22;5768;51.476;7.210;2023-11-22T14:48:46;9.50;10.70
11423;DHT22;5768;51.476;7.210;2023-11-22T14:53:49;9.20;10.90
11423;DHT22;5768;51.476;7.210;2023-11-22T14:58:52;9.40;10.80
11423;DHT22;5768;51.476;7.210;2023-11-22T15:03:56;9.70;10.90
11423;DHT22;5768;51.476;7.210;2023-11-22T15:08:59;9.60;11.00
11423;DHT22;5768;51.476;7.210;2023-11-22T15:14:01;9.60;11.10
11423;DHT22;5768;51.476;7.210;2023-11-22T15:19:05;9.70;11.00
11423;DHT22;5768;51.476;7.210;2023-11-22T15:24:08;9.40;11.10
11423;DHT22;5768;51.476;7.210;2023-11-22T15:29:10;9.30;11.30
11423;DHT22;5768;51.476;7.210;2023-11-22T15:34:15;8.90;11.30
11423;DHT22;5768;51.476;7.210;2023-11-22T15:39:17;8.80;11.40
11423;DHT22;5768;51.476;7.210;2023-11-22T15:44:22;8.80;11.50
11423;DHT22;5768;51.476;7.210;2023-11-22T15:49:26;9.00;11.60
11423;DHT22;5768;51.476;7.210;2023-11-22T15:54:28;9.10;11.50
11423;DHT22;5768;51.476;7.210;2023-11-22T15:59:30;9.30;11.50
11423;DHT22;5768;51.476;7.210;2023-11-22T16:04:34;9.30;11.70
11423;DHT22;5768;51.476;7.210;2023-11-22T16:09:37;9.20;11.60
11423;DHT22;5768;51.476;7.210;2023-11-22T16:14:44;9.20;11.70
11423;DHT22;5768;51.476;7.210;2023-11-22T16:19:48;9.00;11.70
11423;DHT22;5768;51.476;7.210;2023-11-22T16:24:50;9.00;12.00
11423;DHT22;5768;51.476;7.210;2023-11-22T16:29:53;9.00;12.00
11423;DHT22;5768;51.476;7.210;2023-11-22T16:34:57;8.50;12.20
11423;DHT22;5768;51.476;7.210;2023-11-22T16:40:00;8.30;12.30
11423;DHT22;5768;51.476;7.210;2023-11-22T16:45:06;8.60;12.30
11423;DHT22;5768;51.476;7.210;2023-11-22T16:50:11;8.30;12.30
11423;DHT22;5768;51.476;7.210;2023-11-22T16:55:13;8.10;12.60
11423;DHT22;5768;51.476;7.210;2023-11-22T17:00:16;8.00;12.60
11423;DHT22;5768;51.476;7.210;2023-11-22T17:05:20;8.00;12.90
11423;DHT22;5768;51.476;7.210;2023-11-22T17:10:23;7.90;12.90
11423;DHT22;5768;51.476;7.210;2023-11-22T17:15:25;8.00;13.00
11423;DHT22;5768;51.476;7.210;2023-11-22T17:20:29;7.90;13.00
11423;DHT22;5768;51.476;7.210;2023-11-22T17:25:31;7.60;13.10
11423;DHT22;5768;51.476;7.210;2023-11-22T17:30:33;7.50;13.40
11423;DHT22;5768;51.476;7.210;2023-11-22T17:35:37;7.60;13.10
11423;DHT22;5768;51.476;7.210;2023-11-22T17:40:39;7.40;13.00
11423;DHT22;5768;51.476;7.210;2023-11-22T17:45:41;7.40;12.80
11423;DHT22;5768;51.476;7.210;2023-11-22T17:50:45;7.30;12.70
11423;DHT22;5768;51.476;7.210;2023-11-22T17:55:50;7.20;12.70
11423;DHT22;5768;51.476;7.210;2023-11-22T18:00:54;7.20;13.00
11423;DHT22;5768;51.476;7.210;2023-11-22T18:05:58;7.10;13.30
11423;DHT22;5768;51.476;7.210;2023-11-22T18:11:01;7.20;13.50
11423;DHT22;5768;51.476;7.210;2023-11-22T18:16:04;7.10;13.60
11423;DHT22;5768;51.476;7.210;2023-11-22T18:21:08;6.90;13.80
11423;DHT22;5768;51.476;7.210;2023-11-22T18:26:14;6.90;14.10
11423;DHT22;5768;51.476;7.210;2023-11-22T18:31:16;6.90;14.20
11423;DHT22;5768;51.476;7.210;2023-11-22T18:36:20;6.50;14.70
11423;DHT22;5768;51.476;7.210;2023-11-22T18:41:23;6.70;14.90
11423;DHT22;5768;51.476;7.210;2023-11-22T18:46:25;6.60;15.20
11423;DHT22;5768;51.476;7.210;2023-11-22T18:51:29;6.50;15.50
11423;DHT22;5768;51.476;7.210;2023-11-22T18:56:31;6.60;15.80
11423;DHT22;5768;51.476;7.210;2023-11-22T19:01:34;6.50;16.10
11423;DHT22;5768;51.476;7.210;2023-11-22T19:06:37;6.70;16.40
11423;DHT22;5768;51.476;7.210;2023-11-22T19:11:42;6.80;16.20
11423;DHT22;5768;51.476;7.210;2023-11-22T19:16:46;6.60;16.50
11423;DHT22;5768;51.476;7.210;2023-11-22T19:21:50;6.70;16.20
11423;DHT22;5768;51.476;7.210;2023-11-22T19:31:55;6.90;16.00
11423;DHT22;5768;51.476;7.210;2023-11-22T19:37:00;7.00;16.10
11423;DHT22;5768;51.476;7.210;2023-11-22T19:42:02;6.80;16.10
11423;DHT22;5768;51.476;7.210;2023-11-22T19:47:05;6.80;16.10
11423;DHT22;5768;51.476;7.210;2023-11-22T19:52:13;6.70;16.10
11423;DHT22;5768;51.476;7.210;2023-11-22T19:57:15;7.00;16.00
11423;DHT22;5768;51.476;7.210;2023-11-22T20:02:18;7.30;15.80
11423;DHT22;5768;51.476;7.210;2023-11-22T20:07:22;7.40;15.60
11423;DHT22;5768;51.476;7.210;2023-11-22T20:12:27;7.20;15.50
11423;DHT22;5768;51.476;7.210;2023-11-22T20:17:30;7.10;15.60
11423;DHT22;5768;51.476;7.210;2023-11-22T20:22:33;7.10;15.60
11423;DHT22;5768;51.476;7.210;2023-11-22T20:27:35;7.10;15.50
11423;DHT22;5768;51.476;7.210;2023-11-22T20:32:38;7.40;15.50
11423;DHT22;5768;51.476;7.210;2023-11-22T20:37:41;7.30;15.30
11423;DHT22;5768;51.476;7.210;2023-11-22T20:42:47;7.10;15.50
11423;DHT22;5768;51.476;7.210;2023-11-22T20:47:49;7.20;15.50
11423;DHT22;5768;51.476;7.210;2023-11-22T20:52:53;7.20;15.40
11423;DHT22;5768;51.476;7.210;2023-11-22T20:57:56;6.90;15.50
11423;DHT22;5768;51.476;7.210;2023-11-22T21:02:59;7.10;15.40
11423;DHT22;5768;51.476;7.210;2023-11-22T21:08:03;7.10;15.50
11423;DHT22;5768;51.476;7.210;2023-11-22T21:13:05;6.90;15.50
11423;DHT22;5768;51.476;7.210;2023-11-22T21:18:08;7.00;15.70
11423;DHT22;5768;51.476;7.210;2023-11-22T21:23:14;6.80;15.90
11423;DHT22;5768;51.476;7.210;2023-11-22T21:28:16;6.70;16.00
11423;DHT22;5768;51.476;7.210;2023-11-22T21:33:18;6.80;16.10
11423;DHT22;5768;51.476;7.210;2023-11-22T21:38:22;7.20;15.90
11423;DHT22;5768;51.476;7.210;2023-11-22T21:43:24;7.10;15.90
11423;DHT22;5768;51.476;7.210;2023-11-22T21:48:27;7.00;15.90
11423;DHT22;5768;51.476;7.210;2023-11-22T21:53:31;7.00;15.90
11423;DHT22;5768;51.476;7.210;2023-11-22T21:58:33;7.10;15.80
11423;DHT22;5768;51.476;7.210;2023-11-22T22:03:38;7.20;15.80
11423;DHT22;5768;51.476;7.210;2023-11-22T22:08:42;7.10;15.80
11423;DHT22;5768;51.476;7.210;2023-11-22T22:13:45;7.30;15.80
11423;DHT22;5768;51.476;7.210;2023-11-22T22:18:47;7.30;15.70
11423;DHT22;5768;51.476;7.210;2023-11-22T22:23:50;7.30;15.70
11423;DHT22;5768;51.476;7.210;2023-11-22T22:28:53;7.30;15.80
11423;DHT22;5768;51.476;7.210;2023-11-22T22:33:55;7.40;15.90
11423;DHT22;5768;51.476;7.210;2023-11-22T22:39:08;7.40;16.00
11423;DHT22;5768;51.476;7.210;2023-11-22T22:44:11;7.50;16.00
11423;DHT22;5768;51.476;7.210;2023-11-22T22:49:13;7.50;16.20
11423;DHT22;5768;51.476;7.210;2023-11-22T22:54:17;7.60;16.20
11423;DHT22;5768;51.476;7.210;2023-11-22T22:59:19;7.80;16.20
11423;DHT22;5768;51.476;7.210;2023-11-22T23:04:21;7.60;16.40
11423;DHT22;5768;51.476;7.210;2023-11-22T23:09:25;7.50;16.70
11423;DHT22;5768;51.476;7.210;2023-11-22T23:14:27;7.80;16.60
11423;DHT22;5768;51.476;7.210;2023-11-22T23:19:30;7.90;16.70
11423;DHT22;5768;51.476;7.210;2023-11-22T23:24:35;7.70;16.80
11423;DHT22;5768;51.476;7.210;2023-11-22T23:29:39;7.80;17.00
11423;DHT22;5768;51.476;7.210;2023-11-22T23:34:44;7.70;17.20
11423;DHT22;5768;51.476;7.210;2023-11-22T23:39:48;7.80;17.10
11423;DHT22;5768;51.476;7.210;2023-11-22T23:44:52;7.60;17.80
11423;DHT22;5768;51.476;7.210;2023-11-22T23:49:54;7.60;18.60
11423;DHT22;5768;51.476;7.210;2023-11-22T23:54:58;7.50;20.00
